sensor_id;sensor_type;location;lat;lon;timestamp;P1;durP1;ratioP1;P2;durP2;ratioP2
24223;SDS011;12359;49.716;9.212;2023-05-07T00:01:08;0.20;;;0.20;;
24223;SDS011;12359;49.716;9.212;2023-05-07T00:03:34;0.10;;;0.10;;
24223;SDS011;12359;49.716;9.212;2023-05-07T00:06:00;0.10;;;0.10;;
24223;SDS011;12359;49.716;9.212;2023-05-07T00:08:25;0.10;;;0.10;;
24223;SDS011;12359;49.716;9.212;2023-05-07T00:10:51;0.15;;;0.15;;
24223;SDS011;12359;49.716;9.212;2023-05-07T00:13:17;0.20;;;0.20;;
24223;SDS011;12359;49.716;9.212;2023-05-07T00:15:42;0.10;;;0.10;;
24223;SDS011;12359;49.716;9.212;2023-05-07T00:18:08;0.10;;;0.10;;
24223;SDS011;12359;49.716;9.212;2023-05-07T00:20:34;0.10;;;0.10;;
24223;SDS011;12359;49.716;9.212;2023-05-07T00:22:59;0.10;;;0.10;;
24223;SDS011;12359;49.716;9.212;2023-05-07T00:25:25;0.10;;;0.10;;
24223;SDS011;12359;49.716;9.212;2023-05-07T00:27:51;0.10;;;0.10;;
24223;SDS011;12359;49.716;9.212;2023-05-07T00:30:16;0.20;;;0.20;;
24223;SDS011;12359;49.716;9.212;2023-05-07T00:32:42;0.10;;;0.10;;
24223;SDS011;12359;49.716;9.212;2023-05-07T00:35:10;0.10;;;0.10;;
24223;SDS011;12359;49.716;9.212;2023-05-07T00:37:36;0.10;;;0.10;;
24223;SDS011;12359;49.716;9.212;2023-05-07T00:40:02;0.20;;;0.20;;
24223;SDS011;12359;49.716;9.212;2023-05-07T00:42:29;0.10;;;0.10;;
24223;SDS011;12359;49.716;9.212;2023-05-07T00:44:57;0.10;;;0.10;;
24223;SDS011;12359;49.716;9.212;2023-05-07T00:47:23;0.10;;;0.10;;
24223;SDS011;12359;49.716;9.212;2023-05-07T00:49:50;0.10;;;0.10;;
24223;SDS011;12359;49.716;9.212;2023-05-07T00:52:17;0.10;;;0.10;;
24223;SDS011;12359;49.716;9.212;2023-05-07T00:54:44;0.10;;;0.10;;
24223;SDS011;12359;49.716;9.212;2023-05-07T00:57:10;0.10;;;0.10;;
24223;SDS011;12359;49.716;9.212;2023-05-07T00:59:36;0.10;;;0.10;;
24223;SDS011;12359;49.716;9.212;2023-05-07T01:02:03;0.10;;;0.10;;
24223;SDS011;12359;49.716;9.212;2023-05-07T01:04:28;0.10;;;0.10;;
24223;SDS011;12359;49.716;9.212;2023-05-07T01:06:54;0.10;;;0.10;;
24223;SDS011;12359;49.716;9.212;2023-05-07T01:09:21;0.20;;;0.20;;
24223;SDS011;12359;49.716;9.212;2023-05-07T01:11:49;0.10;;;0.10;;
24223;SDS011;12359;49.716;9.212;2023-05-07T01:14:15;0.10;;;0.10;;
24223;SDS011;12359;49.716;9.212;2023-05-07T01:16:41;0.20;;;0.20;;
24223;SDS011;12359;49.716;9.212;2023-05-07T01:19:07;0.20;;;0.20;;
24223;SDS011;12359;49.716;9.212;2023-05-07T01:21:36;0.20;;;0.20;;
24223;SDS011;12359;49.716;9.212;2023-05-07T01:24:02;0.10;;;0.10;;
24223;SDS011;12359;49.716;9.212;2023-05-07T01:26:30;0.10;;;0.10;;
24223;SDS011;12359;49.716;9.212;2023-05-07T01:28:56;0.20;;;0.20;;
24223;SDS011;12359;49.716;9.212;2023-05-07T01:31:21;0.20;;;0.20;;
24223;SDS011;12359;49.716;9.212;2023-05-07T01:33:49;0.20;;;0.20;;
24223;SDS011;12359;49.716;9.212;2023-05-07T01:36:17;0.10;;;0.10;;
24223;SDS011;12359;49.716;9.212;2023-05-07T01:38:43;0.10;;;0.10;;
24223;SDS011;12359;49.716;9.212;2023-05-07T01:41:11;0.10;;;0.10;;
24223;SDS011;12359;49.716;9.212;2023-05-07T01:43:37;0.10;;;0.10;;
24223;SDS011;12359;49.716;9.212;2023-05-07T01:46:03;0.10;;;0.10;;
24223;SDS011;12359;49.716;9.212;2023-05-07T01:48:30;0.10;;;0.10;;
24223;SDS011;12359;49.716;9.212;2023-05-07T01:50:56;0.20;;;0.20;;
24223;SDS011;12359;49.716;9.212;2023-05-07T01:53:23;0.10;;;0.10;;
24223;SDS011;12359;49.716;9.212;2023-05-07T01:55:48;0.20;;;0.20;;
24223;SDS011;12359;49.716;9.212;2023-05-07T01:58:14;0.20;;;0.20;;
24223;SDS011;12359;49.716;9.212;2023-05-07T02:00:40;0.10;;;0.10;;
24223;SDS011;12359;49.716;9.212;2023-05-07T02:03:06;0.10;;;0.10;;
24223;SDS011;12359;49.716;9.212;2023-05-07T02:05:31;0.10;;;0.10;;
24223;SDS011;12359;49.716;9.212;2023-05-07T02:07:57;0.20;;;0.20;;
24223;SDS011;12359;49.716;9.212;2023-05-07T02:10:23;0.10;;;0.10;;
24223;SDS011;12359;49.716;9.212;2023-05-07T02:12:48;0.20;;;0.20;;
24223;SDS011;12359;49.716;9.212;2023-05-07T02:15:14;0.20;;;0.20;;
24223;SDS011;12359;49.716;9.212;2023-05-07T02:17:57;0.10;;;0.10;;
24223;SDS011;12359;49.716;9.212;2023-05-07T02:20:24;0.10;;;0.10;;
24223;SDS011;12359;49.716;9.212;2023-05-07T02:22:50;0.10;;;0.10;;
24223;SDS011;12359;49.716;9.212;2023-05-07T02:25:16;0.10;;;0.10;;
24223;SDS011;12359;49.716;9.212;2023-05-07T02:27:42;0.10;;;0.10;;
24223;SDS011;12359;49.716;9.212;2023-05-07T02:30:07;0.10;;;0.10;;
24223;SDS011;12359;49.716;9.212;2023-05-07T02:32:33;0.10;;;0.10;;
24223;SDS011;12359;49.716;9.212;2023-05-07T02:34:59;0.17;;;0.17;;
24223;SDS011;12359;49.716;9.212;2023-05-07T02:37:24;0.17;;;0.17;;
24223;SDS011;12359;49.716;9.212;2023-05-07T02:39:50;0.10;;;0.10;;
24223;SDS011;12359;49.716;9.212;2023-05-07T02:42:16;0.10;;;0.10;;
24223;SDS011;12359;49.716;9.212;2023-05-07T02:44:41;0.20;;;0.20;;
24223;SDS011;12359;49.716;9.212;2023-05-07T02:47:07;0.20;;;0.20;;
24223;SDS011;12359;49.716;9.212;2023-05-07T02:49:34;0.20;;;0.20;;
24223;SDS011;12359;49.716;9.212;2023-05-07T02:52:00;0.20;;;0.20;;
24223;SDS011;12359;49.716;9.212;2023-05-07T02:54:25;0.10;;;0.10;;
24223;SDS011;12359;49.716;9.212;2023-05-07T02:56:51;0.10;;;0.10;;
24223;SDS011;12359;49.716;9.212;2023-05-07T02:59:17;0.17;;;0.17;;
24223;SDS011;12359;49.716;9.212;2023-05-07T03:01:43;0.10;;;0.10;;
24223;SDS011;12359;49.716;9.212;2023-05-07T03:04:10;0.20;;;0.20;;
24223;SDS011;12359;49.716;9.212;2023-05-07T03:06:36;0.20;;;0.20;;
24223;SDS011;12359;49.716;9.212;2023-05-07T03:09:02;0.20;;;0.20;;
24223;SDS011;12359;49.716;9.212;2023-05-07T03:11:27;0.10;;;0.10;;
24223;SDS011;12359;49.716;9.212;2023-05-07T03:13:53;0.13;;;0.13;;
24223;SDS011;12359;49.716;9.212;2023-05-07T03:16:19;0.20;;;0.20;;
24223;SDS011;12359;49.716;9.212;2023-05-07T03:18:45;0.10;;;0.10;;
24223;SDS011;12359;49.716;9.212;2023-05-07T03:21:10;0.20;;;0.20;;
24223;SDS011;12359;49.716;9.212;2023-05-07T03:23:36;0.13;;;0.13;;
24223;SDS011;12359;49.716;9.212;2023-05-07T03:26:02;0.20;;;0.20;;
24223;SDS011;12359;49.716;9.212;2023-05-07T03:28:27;0.20;;;0.20;;
24223;SDS011;12359;49.716;9.212;2023-05-07T03:30:53;0.10;;;0.10;;
24223;SDS011;12359;49.716;9.212;2023-05-07T03:33:19;0.10;;;0.10;;
24223;SDS011;12359;49.716;9.212;2023-05-07T03:35:45;0.10;;;0.10;;
24223;SDS011;12359;49.716;9.212;2023-05-07T03:38:10;0.10;;;0.10;;
24223;SDS011;12359;49.716;9.212;2023-05-07T03:40:36;0.20;;;0.20;;
24223;SDS011;12359;49.716;9.212;2023-05-07T03:43:02;0.13;;;0.13;;
24223;SDS011;12359;49.716;9.212;2023-05-07T03:45:27;0.10;;;0.10;;
24223;SDS011;12359;49.716;9.212;2023-05-07T03:47:53;0.10;;;0.10;;
24223;SDS011;12359;49.716;9.212;2023-05-07T03:50:19;0.20;;;0.20;;
24223;SDS011;12359;49.716;9.212;2023-05-07T03:52:45;0.20;;;0.20;;
24223;SDS011;12359;49.716;9.212;2023-05-07T03:55:10;0.10;;;0.10;;
24223;SDS011;12359;49.716;9.212;2023-05-07T03:57:36;0.20;;;0.20;;
24223;SDS011;12359;49.716;9.212;2023-05-07T04:00:02;0.10;;;0.10;;
24223;SDS011;12359;49.716;9.212;2023-05-07T04:02:29;0.10;;;0.10;;
24223;SDS011;12359;49.716;9.212;2023-05-07T04:04:55;0.20;;;0.20;;
24223;SDS011;12359;49.716;9.212;2023-05-07T04:07:21;0.20;;;0.20;;
24223;SDS011;12359;49.716;9.212;2023-05-07T04:09:47;0.20;;;0.20;;
24223;SDS011;12359;49.716;9.212;2023-05-07T04:12:12;0.20;;;0.20;;
24223;SDS011;12359;49.716;9.212;2023-05-07T04:14:38;0.20;;;0.20;;
24223;SDS011;12359;49.716;9.212;2023-05-07T04:17:04;0.17;;;0.17;;
24223;SDS011;12359;49.716;9.212;2023-05-07T04:19:32;0.20;;;0.20;;
24223;SDS011;12359;49.716;9.212;2023-05-07T04:21:58;0.10;;;0.10;;
24223;SDS011;12359;49.716;9.212;2023-05-07T04:24:24;0.20;;;0.20;;
24223;SDS011;12359;49.716;9.212;2023-05-07T04:26:50;0.17;;;0.17;;
24223;SDS011;12359;49.716;9.212;2023-05-07T04:29:16;0.20;;;0.20;;
24223;SDS011;12359;49.716;9.212;2023-05-07T04:31:42;0.20;;;0.20;;
24223;SDS011;12359;49.716;9.212;2023-05-07T04:34:09;0.20;;;0.20;;
24223;SDS011;12359;49.716;9.212;2023-05-07T04:36:37;0.20;;;0.20;;
24223;SDS011;12359;49.716;9.212;2023-05-07T04:39:03;0.20;;;0.20;;
24223;SDS011;12359;49.716;9.212;2023-05-07T04:41:29;0.10;;;0.10;;
24223;SDS011;12359;49.716;9.212;2023-05-07T04:43:55;0.10;;;0.10;;
24223;SDS011;12359;49.716;9.212;2023-05-07T04:46:22;0.15;;;0.15;;
24223;SDS011;12359;49.716;9.212;2023-05-07T04:48:48;0.10;;;0.10;;
24223;SDS011;12359;49.716;9.212;2023-05-07T04:51:14;0.10;;;0.10;;
24223;SDS011;12359;49.716;9.212;2023-05-07T04:53:40;0.20;;;0.20;;
24223;SDS011;12359;49.716;9.212;2023-05-07T04:56:06;0.20;;;0.20;;
24223;SDS011;12359;49.716;9.212;2023-05-07T04:58:32;0.20;;;0.20;;
24223;SDS011;12359;49.716;9.212;2023-05-07T05:00:58;0.10;;;0.10;;
24223;SDS011;12359;49.716;9.212;2023-05-07T05:03:23;0.20;;;0.20;;
24223;SDS011;12359;49.716;9.212;2023-05-07T05:05:50;0.17;;;0.17;;
24223;SDS011;12359;49.716;9.212;2023-05-07T05:08:17;0.10;;;0.10;;
24223;SDS011;12359;49.716;9.212;2023-05-07T05:10:42;0.20;;;0.20;;
24223;SDS011;12359;49.716;9.212;2023-05-07T05:13:08;0.20;;;0.20;;
24223;SDS011;12359;49.716;9.212;2023-05-07T05:15:34;0.10;;;0.10;;
24223;SDS011;12359;49.716;9.212;2023-05-07T05:18:00;0.20;;;0.20;;
24223;SDS011;12359;49.716;9.212;2023-05-07T05:20:26;0.20;;;0.20;;
24223;SDS011;12359;49.716;9.212;2023-05-07T05:22:52;0.10;;;0.10;;
24223;SDS011;12359;49.716;9.212;2023-05-07T05:25:17;0.20;;;0.20;;
24223;SDS011;12359;49.716;9.212;2023-05-07T05:27:43;0.10;;;0.10;;
24223;SDS011;12359;49.716;9.212;2023-05-07T05:30:09;0.10;;;0.10;;
24223;SDS011;12359;49.716;9.212;2023-05-07T05:32:35;0.10;;;0.10;;
24223;SDS011;12359;49.716;9.212;2023-05-07T05:35:01;0.20;;;0.20;;
24223;SDS011;12359;49.716;9.212;2023-05-07T05:37:26;0.10;;;0.10;;
24223;SDS011;12359;49.716;9.212;2023-05-07T05:39:52;0.10;;;0.10;;
24223;SDS011;12359;49.716;9.212;2023-05-07T05:42:19;0.20;;;0.20;;
24223;SDS011;12359;49.716;9.212;2023-05-07T05:44:45;0.10;;;0.10;;
24223;SDS011;12359;49.716;9.212;2023-05-07T05:47:11;0.20;;;0.20;;
24223;SDS011;12359;49.716;9.212;2023-05-07T05:49:37;0.10;;;0.10;;
24223;SDS011;12359;49.716;9.212;2023-05-07T05:52:02;0.10;;;0.10;;
24223;SDS011;12359;49.716;9.212;2023-05-07T05:54:28;0.20;;;0.20;;
24223;SDS011;12359;49.716;9.212;2023-05-07T05:56:54;0.10;;;0.10;;
24223;SDS011;12359;49.716;9.212;2023-05-07T05:59:20;0.10;;;0.10;;
24223;SDS011;12359;49.716;9.212;2023-05-07T06:01:46;0.10;;;0.10;;
24223;SDS011;12359;49.716;9.212;2023-05-07T06:04:12;0.10;;;0.10;;
24223;SDS011;12359;49.716;9.212;2023-05-07T06:06:37;0.10;;;0.10;;
24223;SDS011;12359;49.716;9.212;2023-05-07T06:09:03;0.10;;;0.10;;
24223;SDS011;12359;49.716;9.212;2023-05-07T06:11:28;0.10;;;0.10;;
24223;SDS011;12359;49.716;9.212;2023-05-07T06:13:54;0.10;;;0.10;;
24223;SDS011;12359;49.716;9.212;2023-05-07T06:16:20;0.20;;;0.20;;
24223;SDS011;12359;49.716;9.212;2023-05-07T06:18:45;0.20;;;0.20;;
24223;SDS011;12359;49.716;9.212;2023-05-07T06:21:13;0.20;;;0.20;;
24223;SDS011;12359;49.716;9.212;2023-05-07T06:23:38;0.20;;;0.20;;
24223;SDS011;12359;49.716;9.212;2023-05-07T06:26:05;0.20;;;0.20;;
24223;SDS011;12359;49.716;9.212;2023-05-07T06:28:31;0.10;;;0.10;;
24223;SDS011;12359;49.716;9.212;2023-05-07T06:33:39;0.10;;;0.10;;
24223;SDS011;12359;49.716;9.212;2023-05-07T06:36:05;0.10;;;0.10;;
24223;SDS011;12359;49.716;9.212;2023-05-07T06:38:31;0.10;;;0.10;;
24223;SDS011;12359;49.716;9.212;2023-05-07T06:40:57;0.10;;;0.10;;
24223;SDS011;12359;49.716;9.212;2023-05-07T06:43:22;0.10;;;0.10;;
24223;SDS011;12359;49.716;9.212;2023-05-07T06:45:48;0.10;;;0.10;;
24223;SDS011;12359;49.716;9.212;2023-05-07T06:48:14;0.10;;;0.10;;
24223;SDS011;12359;49.716;9.212;2023-05-07T06:50:39;0.10;;;0.10;;
24223;SDS011;12359;49.716;9.212;2023-05-07T06:53:06;0.10;;;0.10;;
24223;SDS011;12359;49.716;9.212;2023-05-07T06:55:32;0.10;;;0.10;;
24223;SDS011;12359;49.716;9.212;2023-05-07T06:57:58;0.10;;;0.10;;
24223;SDS011;12359;49.716;9.212;2023-05-07T07:00:26;0.17;;;0.17;;
24223;SDS011;12359;49.716;9.212;2023-05-07T07:02:52;0.20;;;0.20;;
24223;SDS011;12359;49.716;9.212;2023-05-07T07:05:18;0.10;;;0.10;;
24223;SDS011;12359;49.716;9.212;2023-05-07T07:07:44;0.10;;;0.10;;
24223;SDS011;12359;49.716;9.212;2023-05-07T07:10:17;0.10;;;0.10;;
24223;SDS011;12359;49.716;9.212;2023-05-07T07:12:44;0.10;;;0.10;;
24223;SDS011;12359;49.716;9.212;2023-05-07T07:15:09;0.10;;;0.10;;
24223;SDS011;12359;49.716;9.212;2023-05-07T07:17:36;0.10;;;0.10;;
24223;SDS011;12359;49.716;9.212;2023-05-07T07:20:02;0.10;;;0.10;;
24223;SDS011;12359;49.716;9.212;2023-05-07T07:22:28;0.10;;;0.10;;
24223;SDS011;12359;49.716;9.212;2023-05-07T07:24:54;0.10;;;0.10;;
24223;SDS011;12359;49.716;9.212;2023-05-07T07:27:19;0.10;;;0.10;;
24223;SDS011;12359;49.716;9.212;2023-05-07T07:29:45;0.10;;;0.10;;
24223;SDS011;12359;49.716;9.212;2023-05-07T07:32:11;0.10;;;0.10;;
24223;SDS011;12359;49.716;9.212;2023-05-07T07:34:36;0.10;;;0.10;;
24223;SDS011;12359;49.716;9.212;2023-05-07T07:37:02;0.10;;;0.10;;
24223;SDS011;12359;49.716;9.212;2023-05-07T07:39:31;0.10;;;0.10;;
24223;SDS011;12359;49.716;9.212;2023-05-07T07:41:57;0.10;;;0.10;;
24223;SDS011;12359;49.716;9.212;2023-05-07T07:44:23;0.10;;;0.10;;
24223;SDS011;12359;49.716;9.212;2023-05-07T07:46:48;0.10;;;0.10;;
24223;SDS011;12359;49.716;9.212;2023-05-07T07:49:15;0.10;;;0.10;;
24223;SDS011;12359;49.716;9.212;2023-05-07T07:51:41;0.10;;;0.10;;
24223;SDS011;12359;49.716;9.212;2023-05-07T07:54:06;0.10;;;0.10;;
24223;SDS011;12359;49.716;9.212;2023-05-07T07:56:32;0.10;;;0.10;;
24223;SDS011;12359;49.716;9.212;2023-05-07T07:58:59;0.10;;;0.10;;
24223;SDS011;12359;49.716;9.212;2023-05-07T08:01:25;0.10;;;0.10;;
24223;SDS011;12359;49.716;9.212;2023-05-07T08:03:51;0.10;;;0.10;;
24223;SDS011;12359;49.716;9.212;2023-05-07T08:06:17;0.10;;;0.10;;
24223;SDS011;12359;49.716;9.212;2023-05-07T08:08:43;0.10;;;0.10;;
24223;SDS011;12359;49.716;9.212;2023-05-07T08:11:09;0.10;;;0.10;;
24223;SDS011;12359;49.716;9.212;2023-05-07T08:13:36;0.10;;;0.10;;
24223;SDS011;12359;49.716;9.212;2023-05-07T08:16:03;0.10;;;0.10;;
24223;SDS011;12359;49.716;9.212;2023-05-07T08:18:29;0.10;;;0.10;;
24223;SDS011;12359;49.716;9.212;2023-05-07T08:20:55;0.10;;;0.10;;
24223;SDS011;12359;49.716;9.212;2023-05-07T08:23:21;0.10;;;0.10;;
24223;SDS011;12359;49.716;9.212;2023-05-07T08:25:47;0.10;;;0.10;;
24223;SDS011;12359;49.716;9.212;2023-05-07T08:28:13;0.10;;;0.10;;
24223;SDS011;12359;49.716;9.212;2023-05-07T08:30:39;0.10;;;0.10;;
24223;SDS011;12359;49.716;9.212;2023-05-07T08:33:04;0.10;;;0.10;;
24223;SDS011;12359;49.716;9.212;2023-05-07T08:35:30;0.10;;;0.10;;
24223;SDS011;12359;49.716;9.212;2023-05-07T08:37:56;0.10;;;0.10;;
24223;SDS011;12359;49.716;9.212;2023-05-07T08:40:22;0.10;;;0.10;;
24223;SDS011;12359;49.716;9.212;2023-05-07T08:42:51;0.10;;;0.10;;
24223;SDS011;12359;49.716;9.212;2023-05-07T08:45:18;0.10;;;0.10;;
24223;SDS011;12359;49.716;9.212;2023-05-07T08:47:54;0.10;;;0.10;;
24223;SDS011;12359;49.716;9.212;2023-05-07T08:50:27;0.10;;;0.10;;
24223;SDS011;12359;49.716;9.212;2023-05-07T08:52:53;0.10;;;0.10;;
24223;SDS011;12359;49.716;9.212;2023-05-07T08:55:19;0.10;;;0.10;;
24223;SDS011;12359;49.716;9.212;2023-05-07T08:57:45;0.10;;;0.10;;
24223;SDS011;12359;49.716;9.212;2023-05-07T09:00:13;0.10;;;0.10;;
24223;SDS011;12359;49.716;9.212;2023-05-07T09:02:39;0.10;;;0.10;;
24223;SDS011;12359;49.716;9.212;2023-05-07T09:05:05;0.10;;;0.10;;
24223;SDS011;12359;49.716;9.212;2023-05-07T09:07:31;0.20;;;0.20;;
24223;SDS011;12359;49.716;9.212;2023-05-07T09:09:56;0.10;;;0.10;;
24223;SDS011;12359;49.716;9.212;2023-05-07T09:12:23;0.10;;;0.10;;
24223;SDS011;12359;49.716;9.212;2023-05-07T09:14:49;0.10;;;0.10;;
24223;SDS011;12359;49.716;9.212;2023-05-07T09:17:15;0.10;;;0.10;;
24223;SDS011;12359;49.716;9.212;2023-05-07T09:19:42;0.10;;;0.10;;
24223;SDS011;12359;49.716;9.212;2023-05-07T09:22:11;0.10;;;0.10;;
24223;SDS011;12359;49.716;9.212;2023-05-07T09:24:37;0.00;;;0.00;;
24223;SDS011;12359;49.716;9.212;2023-05-07T09:27:03;0.10;;;0.10;;
24223;SDS011;12359;49.716;9.212;2023-05-07T09:29:30;0.08;;;0.08;;
24223;SDS011;12359;49.716;9.212;2023-05-07T09:32:09;0.00;;;0.00;;
24223;SDS011;12359;49.716;9.212;2023-05-07T09:34:35;0.00;;;0.00;;
24223;SDS011;12359;49.716;9.212;2023-05-07T09:37:04;0.05;;;0.05;;
24223;SDS011;12359;49.716;9.212;2023-05-07T09:42:09;0.00;;;0.00;;
24223;SDS011;12359;49.716;9.212;2023-05-07T09:44:36;0.00;;;0.00;;
24223;SDS011;12359;49.716;9.212;2023-05-07T09:47:04;0.00;;;0.00;;
24223;SDS011;12359;49.716;9.212;2023-05-07T09:49:30;0.00;;;0.00;;
24223;SDS011;12359;49.716;9.212;2023-05-07T09:52:03;0.00;;;0.00;;
24223;SDS011;12359;49.716;9.212;2023-05-07T09:54:35;0.00;;;0.00;;
24223;SDS011;12359;49.716;9.212;2023-05-07T09:57:03;0.00;;;0.00;;
24223;SDS011;12359;49.716;9.212;2023-05-07T09:59:31;0.10;;;0.10;;
24223;SDS011;12359;49.716;9.212;2023-05-07T10:01:58;0.00;;;0.00;;
24223;SDS011;12359;49.716;9.212;2023-05-07T10:04:25;0.10;;;0.10;;
24223;SDS011;12359;49.716;9.212;2023-05-07T10:06:52;0.00;;;0.00;;
24223;SDS011;12359;49.716;9.212;2023-05-07T10:09:18;0.00;;;0.00;;
24223;SDS011;12359;49.716;9.212;2023-05-07T10:11:45;0.10;;;0.10;;
24223;SDS011;12359;49.716;9.212;2023-05-07T10:14:13;0.00;;;0.00;;
24223;SDS011;12359;49.716;9.212;2023-05-07T10:16:39;0.00;;;0.00;;
24223;SDS011;12359;49.716;9.212;2023-05-07T10:19:06;0.00;;;0.00;;
24223;SDS011;12359;49.716;9.212;2023-05-07T10:21:38;0.00;;;0.00;;
24223;SDS011;12359;49.716;9.212;2023-05-07T10:26:42;0.00;;;0.00;;
24223;SDS011;12359;49.716;9.212;2023-05-07T10:29:59;0.00;;;0.00;;
24223;SDS011;12359;49.716;9.212;2023-05-07T10:32:06;0.00;;;0.00;;
24223;SDS011;12359;49.716;9.212;2023-05-07T10:34:45;0.00;;;0.00;;
24223;SDS011;12359;49.716;9.212;2023-05-07T10:37:13;0.00;;;0.00;;
24223;SDS011;12359;49.716;9.212;2023-05-07T10:39:40;0.00;;;0.00;;
24223;SDS011;12359;49.716;9.212;2023-05-07T10:42:10;0.00;;;0.00;;
24223;SDS011;12359;49.716;9.212;2023-05-07T10:44:36;0.00;;;0.00;;
24223;SDS011;12359;49.716;9.212;2023-05-07T10:47:12;0.00;;;0.00;;
24223;SDS011;12359;49.716;9.212;2023-05-07T10:52:11;0.00;;;0.00;;
24223;SDS011;12359;49.716;9.212;2023-05-07T10:54:44;0.00;;;0.00;;
24223;SDS011;12359;49.716;9.212;2023-05-07T11:00:01;0.00;;;0.00;;
24223;SDS011;12359;49.716;9.212;2023-05-07T11:05:41;0.00;;;0.00;;
24223;SDS011;12359;49.716;9.212;2023-05-07T11:08:07;0.00;;;0.00;;
24223;SDS011;12359;49.716;9.212;2023-05-07T11:13:19;0.00;;;0.00;;
24223;SDS011;12359;49.716;9.212;2023-05-07T11:16:19;0.00;;;0.00;;
24223;SDS011;12359;49.716;9.212;2023-05-07T11:18:49;0.00;;;0.00;;
24223;SDS011;12359;49.716;9.212;2023-05-07T11:21:32;0.00;;;0.00;;
24223;SDS011;12359;49.716;9.212;2023-05-07T11:23:59;0.00;;;0.00;;
24223;SDS011;12359;49.716;9.212;2023-05-07T11:26:27;0.00;;;0.00;;
24223;SDS011;12359;49.716;9.212;2023-05-07T11:28:54;0.00;;;0.00;;
24223;SDS011;12359;49.716;9.212;2023-05-07T11:31:22;0.00;;;0.00;;
24223;SDS011;12359;49.716;9.212;2023-05-07T11:33:51;0.10;;;0.10;;
24223;SDS011;12359;49.716;9.212;2023-05-07T11:36:18;0.00;;;0.00;;
24223;SDS011;12359;49.716;9.212;2023-05-07T11:38:45;0.10;;;0.10;;
24223;SDS011;12359;49.716;9.212;2023-05-07T11:41:11;0.00;;;0.00;;
24223;SDS011;12359;49.716;9.212;2023-05-07T11:43:37;0.00;;;0.00;;
24223;SDS011;12359;49.716;9.212;2023-05-07T11:46:08;0.00;;;0.00;;
24223;SDS011;12359;49.716;9.212;2023-05-07T11:48:34;0.00;;;0.00;;
24223;SDS011;12359;49.716;9.212;2023-05-07T11:51:01;0.00;;;0.00;;
24223;SDS011;12359;49.716;9.212;2023-05-07T11:53:34;0.00;;;0.00;;
24223;SDS011;12359;49.716;9.212;2023-05-07T11:56:06;0.00;;;0.00;;
24223;SDS011;12359;49.716;9.212;2023-05-07T11:58:35;0.00;;;0.00;;
24223;SDS011;12359;49.716;9.212;2023-05-07T12:01:02;0.00;;;0.00;;
24223;SDS011;12359;49.716;9.212;2023-05-07T12:03:28;0.00;;;0.00;;
24223;SDS011;12359;49.716;9.212;2023-05-07T12:05:53;0.00;;;0.00;;
24223;SDS011;12359;49.716;9.212;2023-05-07T12:08:19;0.00;;;0.00;;
24223;SDS011;12359;49.716;9.212;2023-05-07T12:10:48;0.00;;;0.00;;
24223;SDS011;12359;49.716;9.212;2023-05-07T12:13:17;0.00;;;0.00;;
24223;SDS011;12359;49.716;9.212;2023-05-07T12:15:44;0.00;;;0.00;;
24223;SDS011;12359;49.716;9.212;2023-05-07T12:18:11;0.00;;;0.00;;
24223;SDS011;12359;49.716;9.212;2023-05-07T12:20:37;0.00;;;0.00;;
24223;SDS011;12359;49.716;9.212;2023-05-07T12:23:03;0.00;;;0.00;;
24223;SDS011;12359;49.716;9.212;2023-05-07T12:25:30;0.00;;;0.00;;
24223;SDS011;12359;49.716;9.212;2023-05-07T12:28:00;0.00;;;0.00;;
24223;SDS011;12359;49.716;9.212;2023-05-07T12:30:26;0.00;;;0.00;;
24223;SDS011;12359;49.716;9.212;2023-05-07T12:32:53;0.00;;;0.00;;
24223;SDS011;12359;49.716;9.212;2023-05-07T12:35:29;0.00;;;0.00;;
24223;SDS011;12359;49.716;9.212;2023-05-07T12:37:56;0.00;;;0.00;;
24223;SDS011;12359;49.716;9.212;2023-05-07T12:40:25;0.00;;;0.00;;
24223;SDS011;12359;49.716;9.212;2023-05-07T12:43:07;0.00;;;0.00;;
24223;SDS011;12359;49.716;9.212;2023-05-07T12:45:37;0.00;;;0.00;;
24223;SDS011;12359;49.716;9.212;2023-05-07T12:48:05;0.00;;;0.00;;
24223;SDS011;12359;49.716;9.212;2023-05-07T12:50:32;0.00;;;0.00;;
24223;SDS011;12359;49.716;9.212;2023-05-07T12:52:58;0.00;;;0.00;;
24223;SDS011;12359;49.716;9.212;2023-05-07T12:55:24;0.00;;;0.00;;
24223;SDS011;12359;49.716;9.212;2023-05-07T12:57:51;0.00;;;0.00;;
24223;SDS011;12359;49.716;9.212;2023-05-07T13:00:18;0.00;;;0.00;;
24223;SDS011;12359;49.716;9.212;2023-05-07T13:03:16;0.00;;;0.00;;
24223;SDS011;12359;49.716;9.212;2023-05-07T13:05:51;0.00;;;0.00;;
24223;SDS011;12359;49.716;9.212;2023-05-07T13:11:09;0.00;;;0.00;;
24223;SDS011;12359;49.716;9.212;2023-05-07T13:13:36;0.00;;;0.00;;
24223;SDS011;12359;49.716;9.212;2023-05-07T13:16:04;0.00;;;0.00;;
24223;SDS011;12359;49.716;9.212;2023-05-07T13:18:31;0.00;;;0.00;;
24223;SDS011;12359;49.716;9.212;2023-05-07T13:20:59;0.00;;;0.00;;
24223;SDS011;12359;49.716;9.212;2023-05-07T13:23:25;0.00;;;0.00;;
24223;SDS011;12359;49.716;9.212;2023-05-07T13:25:51;0.00;;;0.00;;
24223;SDS011;12359;49.716;9.212;2023-05-07T13:28:20;0.00;;;0.00;;
24223;SDS011;12359;49.716;9.212;2023-05-07T13:30:47;0.00;;;0.00;;
24223;SDS011;12359;49.716;9.212;2023-05-07T13:33:13;0.00;;;0.00;;
24223;SDS011;12359;49.716;9.212;2023-05-07T13:35:38;0.00;;;0.00;;
24223;SDS011;12359;49.716;9.212;2023-05-07T13:38:04;0.00;;;0.00;;
24223;SDS011;12359;49.716;9.212;2023-05-07T13:40:30;0.00;;;0.00;;
24223;SDS011;12359;49.716;9.212;2023-05-07T13:42:57;0.00;;;0.00;;
24223;SDS011;12359;49.716;9.212;2023-05-07T13:45:23;0.00;;;0.00;;
24223;SDS011;12359;49.716;9.212;2023-05-07T13:47:50;0.00;;;0.00;;
24223;SDS011;12359;49.716;9.212;2023-05-07T13:50:16;0.00;;;0.00;;
24223;SDS011;12359;49.716;9.212;2023-05-07T13:52:43;0.00;;;0.00;;
24223;SDS011;12359;49.716;9.212;2023-05-07T13:55:15;0.00;;;0.00;;
24223;SDS011;12359;49.716;9.212;2023-05-07T13:57:53;0.00;;;0.00;;
24223;SDS011;12359;49.716;9.212;2023-05-07T14:00:24;0.00;;;0.00;;
24223;SDS011;12359;49.716;9.212;2023-05-07T14:02:51;0.10;;;0.10;;
24223;SDS011;12359;49.716;9.212;2023-05-07T14:05:17;0.00;;;0.00;;
24223;SDS011;12359;49.716;9.212;2023-05-07T14:07:43;0.00;;;0.00;;
24223;SDS011;12359;49.716;9.212;2023-05-07T14:10:09;0.00;;;0.00;;
24223;SDS011;12359;49.716;9.212;2023-05-07T14:12:36;0.00;;;0.00;;
24223;SDS011;12359;49.716;9.212;2023-05-07T14:15:01;0.00;;;0.00;;
24223;SDS011;12359;49.716;9.212;2023-05-07T14:17:28;0.00;;;0.00;;
24223;SDS011;12359;49.716;9.212;2023-05-07T14:19:54;0.00;;;0.00;;
24223;SDS011;12359;49.716;9.212;2023-05-07T14:22:20;0.00;;;0.00;;
24223;SDS011;12359;49.716;9.212;2023-05-07T14:24:47;0.00;;;0.00;;
24223;SDS011;12359;49.716;9.212;2023-05-07T14:27:13;0.00;;;0.00;;
24223;SDS011;12359;49.716;9.212;2023-05-07T14:29:38;0.00;;;0.00;;
24223;SDS011;12359;49.716;9.212;2023-05-07T14:32:04;0.00;;;0.00;;
24223;SDS011;12359;49.716;9.212;2023-05-07T14:34:30;0.00;;;0.00;;
24223;SDS011;12359;49.716;9.212;2023-05-07T14:36:56;0.00;;;0.00;;
24223;SDS011;12359;49.716;9.212;2023-05-07T14:39:22;0.00;;;0.00;;
24223;SDS011;12359;49.716;9.212;2023-05-07T14:41:48;0.05;;;0.05;;
24223;SDS011;12359;49.716;9.212;2023-05-07T14:44:14;0.00;;;0.00;;
24223;SDS011;12359;49.716;9.212;2023-05-07T14:46:40;0.00;;;0.00;;
24223;SDS011;12359;49.716;9.212;2023-05-07T14:49:05;0.00;;;0.00;;
24223;SDS011;12359;49.716;9.212;2023-05-07T14:51:32;0.00;;;0.00;;
24223;SDS011;12359;49.716;9.212;2023-05-07T14:53:58;0.00;;;0.00;;
24223;SDS011;12359;49.716;9.212;2023-05-07T14:56:23;0.00;;;0.00;;
24223;SDS011;12359;49.716;9.212;2023-05-07T14:58:49;0.00;;;0.00;;
24223;SDS011;12359;49.716;9.212;2023-05-07T15:01:15;0.00;;;0.00;;
24223;SDS011;12359;49.716;9.212;2023-05-07T15:03:41;0.00;;;0.00;;
24223;SDS011;12359;49.716;9.212;2023-05-07T15:06:07;0.10;;;0.10;;
24223;SDS011;12359;49.716;9.212;2023-05-07T15:08:33;0.00;;;0.00;;